• Join FlightAware (Why Join?)
  • Login
  • US Flag 
04:06PM EDT


 

Airport Tracker/Info


-or-


 

Live Flight TrackerFlight Track Log ✈ N508QS ✈ 15-Sep-2013 ✈ KCMH - KHPN

Flight Track Log - Related Links

Times and Time Zones

All times are in EDT time to prevent confusion due to time zone crossing. See the N508QS flight status page for this flight to view local times or setup timezone preferences in your user account.

Time Position Orientation Groundspeed Altitude Reporting Facility
EDT Latitude Longitude Course Direction KTS MPH feet Rate Location/Type
07:35AM 40.0006 -82.8822 91° East 165 190 1,400  Level Indianapolis Center
07:35AM 40.0000 -82.8417 91° East 200 230 3,800 3,960 Climbing Indianapolis Center
07:36AM 39.9989 -82.8331 100° East 191 220 4,200 4,020 Climbing Indianapolis Center
07:36AM 39.9956 -82.7544 93° East 235 270 7,900 3,420 Climbing Indianapolis Center
07:37AM 39.9903 -82.6472 94° East 285 328 11,100 2,880 Climbing Indianapolis Center
07:39AM 39.9869 -82.5139 92° East 354 407 13,800 3,000 Climbing Indianapolis Center
07:40AM 40.0078 -82.3700 79° East 399 459 17,300 3,180 Climbing Indianapolis Center
07:41AM 40.0303 -82.2197 79° East 416 479 20,300 2,880 Climbing Indianapolis Center
07:42AM 40.0536 -82.0625 79° East 438 504 23,200 3,000 Climbing Indianapolis Center
07:43AM 40.0814 -81.8647 80° East 461 531 26,500 2,700 Climbing Indianapolis Center
07:44AM 40.1064 -81.7000 79° East 477 549 28,800 2,220 Climbing Indianapolis Center
07:45AM 40.1311 -81.5194 80° East 495 570 31,100 2,700 Climbing Indianapolis Center
07:46AM 40.1567 -81.3344 80° East 508 585 34,400 3,000 Climbing Indianapolis Center
07:47AM 40.1808 -81.1564 80° East 498 573 37,300 2,640 Climbing Indianapolis Center
07:48AM 40.2042 -80.9808 80° East 492 566 39,800 1,800 Climbing Indianapolis Center
07:49AM 40.2300 -80.7914 80° East 484 557 41,000 540 Climbing Cleveland Center
07:50AM 40.2769 -80.6231 70° East 500 575 41,000  Level Cleveland Center
07:51AM 40.3400 -80.4658 62° Northeast 490 564 41,000  Level Cleveland Center
07:52AM 40.3969 -80.3231 62° Northeast 485 558 41,000  Level Cleveland Center
07:53AM 40.4544 -80.1639 65° Northeast 484 557 41,000  Level Cleveland Center
07:54AM 40.5175 -80.0069 62° Northeast 491 565 41,000  Level Cleveland Center
07:55AM 40.5903 -79.8181 63° Northeast 494 568 41,000  Level Cleveland Center
07:56AM 40.6517 -79.6569 63° Northeast 494 568 41,000  Level Cleveland Center
07:57AM 40.7133 -79.4942 63° Northeast 497 572 41,000  Level Cleveland Center
07:58AM 40.7750 -79.3328 63° Northeast 496 571 41,000  Level Cleveland Center
07:59AM 40.8353 -79.1706 64° Northeast 494 568 41,000  Level Cleveland Center
08:00AM 40.8953 -79.0092 64° Northeast 492 566 41,000  Level Cleveland Center
08:01AM 40.9561 -78.8497 63° Northeast 487 560 41,000  Level Cleveland Center
08:02AM 41.0167 -78.6856 64° Northeast 494 568 41,000  Level Cleveland Center
08:03AM 41.0769 -78.5242 64° Northeast 492 566 41,000  Level Cleveland Center
08:04AM 41.1364 -78.3589 64° Northeast 495 570 41,000  Level Cleveland Center
08:05AM 41.2006 -78.1811 64° Northeast 516 594 41,000  Level New York Center
08:06AM 41.2544 -78.0158 67° East 493 567 41,000  Level New York Center
08:07AM 41.3083 -77.8475 67° East 488 562 41,000 -120 Level New York Center
08:08AM 41.3619 -77.6789 67° East 488 562 40,800 -960 Descending New York Center
08:09AM 41.4131 -77.5181 67° East 482 555 39,100 -1,800 Descending New York Center
08:10AM 41.4636 -77.3572 67° East 477 549 37,200 -1,860 Descending New York Center
08:11AM 41.5144 -77.1903 68° East 477 549 35,400 -1,800 Descending New York Center
08:12AM 41.5672 -77.0206 67° East 488 562 33,600 -1,800 Descending New York Center
08:13AM 41.6200 -76.8506 67° East 488 562 31,800 -1,860 Descending New York Center
08:15AM 41.7317 -76.4839 68° East 489 563 27,800 -1,860 Descending Cleveland Center
08:16AM 41.7806 -76.3208 68° East 478 550 26,000 -1,860 Descending Cleveland Center
08:17AM 41.8378 -76.1381 67° East 466 536 24,100 -1,020 Descending Boston Center
08:18AM 41.8844 -75.9764 69° East 466 536 24,000 -60 Descending Boston Center
08:19AM 41.9311 -75.8142 69° East 466 536 24,000  Level Boston Center
08:20AM 41.9797 -75.6519 68° East 466 536 24,000  Level Boston Center
08:21AM 42.0258 -75.4922 69° East 466 536 24,000 -240 Level Boston Center
08:22AM 42.0717 -75.3294 69° East 466 536 23,600 -720 Descending Boston Center
08:23AM 42.1072 -75.1631 74° East 466 536 22,600 -1,020 Descending Boston Center
08:24AM 42.0772 -75.0219 106° East 434 499 21,600 -1,500 Descending Boston Center
08:25AM 42.0311 -74.8439 109° East 434 499 19,600 -1,980 Descending Boston Center
08:26AM 41.9903 -74.6969 110° East 428 493 17,800 -1,740 Descending Boston Center
08:27AM 41.9322 -74.5667 121° Southeast 417 480 16,100 -2,100 Descending Boston Center
08:28AM 41.8550 -74.4636 135° Southeast 400 460 13,600 -2,220 Descending Boston Center
08:29AM 41.7858 -74.3694 135° Southeast 374 430 11,700 -1,800 Descending Boston Center
08:30AM 41.7247 -74.2814 133° Southeast 341 392 10,100 -1,560 Descending Boston Center
08:31AM 41.6636 -74.1992 135° Southeast 315 362 8,600 -1,380 Descending Boston Center
08:32AM 41.6125 -74.1283 134° Southeast 298 343 7,400 -960 Descending Boston Center
08:33AM 41.5667 -74.0667 135° Southeast 289 333 7,000 -540 Descending New York TRACON
08:34AM 41.5167 -73.9833 129° Southeast 287 330 6,500 -900 Descending New York TRACON
08:35AM 41.4667 -73.9167 135° Southeast 282 325 5,400 -1,260 Descending New York TRACON
08:36AM 41.4000 -73.8500 143° Southeast 274 315 4,200 -660 Descending New York TRACON
08:37AM 41.3500 -73.8000 143° Southeast 273 314 4,100 -300 Descending New York TRACON
08:38AM 41.2833 -73.7333 143° Southeast 273 314 3,600 -540 Descending New York TRACON
08:39AM 41.2167 -73.6833 151° Southeast 264 304 3,100 -300 Descending New York TRACON
08:40AM 41.1500 -73.6333 151° Southeast 268 308 3,000 -60 Descending New York TRACON
08:41AM 41.1000 -73.6167 166° South 241 277 3,000  Level New York TRACON
08:42AM 41.0333 -73.5833 159° South 211 243 3,000 -240 Level New York TRACON
08:43AM 41.0000 -73.6167 217° Southwest 176 203 2,600 -720 Descending New York TRACON
08:44AM 41.0000 -73.6667 270° West 160 184 1,700 -900 Descending New York TRACON
08:45AM 41.0333 -73.6833 339° North 135 155 900 -840 Descending New York TRACON
08:47AM 41.0667 -73.7000 317° Northwest  Level FlightAware Approximate